sensor_id;sensor_type;location;lat;lon;timestamp;P1;durP1;ratioP1;P2;durP2;ratioP2
68951;SDS011;56000;51.146;17.112;2022-11-15T00:00:40;73.70;;;35.30;;
68951;SDS011;56000;51.146;17.112;2022-11-15T00:03:31;83.60;;;38.60;;
68951;SDS011;56000;51.146;17.112;2022-11-15T00:06:23;72.10;;;35.20;;
68951;SDS011;56000;51.146;17.112;2022-11-15T00:09:14;67.80;;;34.90;;
68951;SDS011;56000;51.146;17.112;2022-11-15T00:14:54;59.30;;;30.40;;
68951;SDS011;56000;51.146;17.112;2022-11-15T00:20:37;69.90;;;30.80;;
68951;SDS011;56000;51.146;17.112;2022-11-15T00:23:28;69.40;;;32.10;;
68951;SDS011;56000;51.146;17.112;2022-11-15T00:26:19;65.00;;;32.50;;
68951;SDS011;56000;51.146;17.112;2022-11-15T00:29:10;70.50;;;33.00;;
68951;SDS011;56000;51.146;17.112;2022-11-15T00:34:51;60.80;;;30.10;;
68951;SDS011;56000;51.146;17.112;2022-11-15T00:37:42;67.70;;;32.10;;
68951;SDS011;56000;51.146;17.112;2022-11-15T00:40:33;60.30;;;28.90;;
68951;SDS011;56000;51.146;17.112;2022-11-15T00:43:24;61.00;;;28.60;;
68951;SDS011;56000;51.146;17.112;2022-11-15T00:46:16;55.70;;;28.00;;
68951;SDS011;56000;51.146;17.112;2022-11-15T00:49:07;59.00;;;29.80;;
68951;SDS011;56000;51.146;17.112;2022-11-15T00:51:58;53.20;;;26.10;;
68951;SDS011;56000;51.146;17.112;2022-11-15T00:54:49;61.70;;;31.40;;
68951;SDS011;56000;51.146;17.112;2022-11-15T00:57:40;66.80;;;33.50;;
68951;SDS011;56000;51.146;17.112;2022-11-15T01:00:32;65.80;;;30.30;;
68951;SDS011;56000;51.146;17.112;2022-11-15T01:03:23;66.80;;;32.70;;
68951;SDS011;56000;51.146;17.112;2022-11-15T01:06:15;63.60;;;31.40;;
68951;SDS011;56000;51.146;17.112;2022-11-15T01:09:06;53.70;;;28.40;;
68951;SDS011;56000;51.146;17.112;2022-11-15T01:11:57;70.30;;;35.20;;
68951;SDS011;56000;51.146;17.112;2022-11-15T01:14:49;58.10;;;31.20;;
68951;SDS011;56000;51.146;17.112;2022-11-15T01:17:43;59.20;;;28.20;;
68951;SDS011;56000;51.146;17.112;2022-11-15T01:20:38;70.40;;;32.40;;
68951;SDS011;56000;51.146;17.112;2022-11-15T01:23:31;64.10;;;29.70;;
68951;SDS011;56000;51.146;17.112;2022-11-15T01:26:25;74.20;;;31.40;;
68951;SDS011;56000;51.146;17.112;2022-11-15T01:29:16;63.70;;;30.90;;
68951;SDS011;56000;51.146;17.112;2022-11-15T01:32:07;48.20;;;24.40;;
68951;SDS011;56000;51.146;17.112;2022-11-15T01:34:59;54.60;;;24.60;;
68951;SDS011;56000;51.146;17.112;2022-11-15T01:37:50;68.20;;;31.70;;
68951;SDS011;56000;51.146;17.112;2022-11-15T01:40:41;59.10;;;28.30;;
68951;SDS011;56000;51.146;17.112;2022-11-15T01:43:35;43.20;;;20.90;;
68951;SDS011;56000;51.146;17.112;2022-11-15T01:46:29;55.60;;;28.70;;
68951;SDS011;56000;51.146;17.112;2022-11-15T01:49:22;53.80;;;27.40;;
68951;SDS011;56000;51.146;17.112;2022-11-15T01:52:18;62.00;;;29.70;;
68951;SDS011;56000;51.146;17.112;2022-11-15T01:55:13;57.20;;;28.30;;
68951;SDS011;56000;51.146;17.112;2022-11-15T01:58:08;52.40;;;25.90;;
68951;SDS011;56000;51.146;17.112;2022-11-15T02:00:59;62.40;;;30.60;;
68951;SDS011;56000;51.146;17.112;2022-11-15T02:03:52;59.80;;;29.70;;
68951;SDS011;56000;51.146;17.112;2022-11-15T02:06:47;59.40;;;29.40;;
68951;SDS011;56000;51.146;17.112;2022-11-15T02:09:39;64.70;;;28.50;;
68951;SDS011;56000;51.146;17.112;2022-11-15T02:12:31;58.30;;;28.40;;
68951;SDS011;56000;51.146;17.112;2022-11-15T02:15:22;55.50;;;28.00;;
68951;SDS011;56000;51.146;17.112;2022-11-15T02:18:22;60.80;;;28.80;;
68951;SDS011;56000;51.146;17.112;2022-11-15T02:21:19;59.40;;;28.30;;
68951;SDS011;56000;51.146;17.112;2022-11-15T02:24:34;60.60;;;28.30;;
68951;SDS011;56000;51.146;17.112;2022-11-15T02:28:02;58.60;;;25.90;;
68951;SDS011;56000;51.146;17.112;2022-11-15T02:31:07;62.20;;;29.20;;
68951;SDS011;56000;51.146;17.112;2022-11-15T02:34:06;62.50;;;30.30;;
68951;SDS011;56000;51.146;17.112;2022-11-15T02:37:13;66.50;;;27.70;;
68951;SDS011;56000;51.146;17.112;2022-11-15T02:40:13;60.10;;;29.20;;
68951;SDS011;56000;51.146;17.112;2022-11-15T02:43:11;65.70;;;28.70;;
68951;SDS011;56000;51.146;17.112;2022-11-15T02:46:25;63.70;;;28.80;;
68951;SDS011;56000;51.146;17.112;2022-11-15T02:49:35;62.90;;;28.50;;
68951;SDS011;56000;51.146;17.112;2022-11-15T02:52:28;55.70;;;25.90;;
68951;SDS011;56000;51.146;17.112;2022-11-15T02:55:30;48.10;;;24.20;;
68951;SDS011;56000;51.146;17.112;2022-11-15T03:01:58;60.70;;;28.10;;
68951;SDS011;56000;51.146;17.112;2022-11-15T03:05:04;60.70;;;27.70;;
68951;SDS011;56000;51.146;17.112;2022-11-15T03:08:05;53.90;;;26.40;;
68951;SDS011;56000;51.146;17.112;2022-11-15T03:11:06;47.20;;;23.60;;
68951;SDS011;56000;51.146;17.112;2022-11-15T03:14:00;61.20;;;28.50;;
68951;SDS011;56000;51.146;17.112;2022-11-15T03:17:00;70.30;;;32.70;;
68951;SDS011;56000;51.146;17.112;2022-11-15T03:20:01;56.70;;;28.00;;
68951;SDS011;56000;51.146;17.112;2022-11-15T03:22:54;59.70;;;27.40;;
68951;SDS011;56000;51.146;17.112;2022-11-15T03:25:53;61.20;;;30.00;;
68951;SDS011;56000;51.146;17.112;2022-11-15T03:28:49;47.70;;;23.30;;
68951;SDS011;56000;51.146;17.112;2022-11-15T03:31:44;58.90;;;28.00;;
68951;SDS011;56000;51.146;17.112;2022-11-15T03:34:41;46.60;;;22.40;;
68951;SDS011;56000;51.146;17.112;2022-11-15T03:37:40;61.70;;;28.60;;
68951;SDS011;56000;51.146;17.112;2022-11-15T03:40:38;38.40;;;20.30;;
68951;SDS011;56000;51.146;17.112;2022-11-15T03:43:33;47.50;;;22.60;;
68951;SDS011;56000;51.146;17.112;2022-11-15T03:46:33;54.60;;;26.00;;
68951;SDS011;56000;51.146;17.112;2022-11-15T03:49:31;46.60;;;23.10;;
68951;SDS011;56000;51.146;17.112;2022-11-15T03:52:23;50.70;;;24.20;;
68951;SDS011;56000;51.146;17.112;2022-11-15T03:55:16;57.90;;;26.10;;
68951;SDS011;56000;51.146;17.112;2022-11-15T03:58:09;56.60;;;24.50;;
68951;SDS011;56000;51.146;17.112;2022-11-15T04:01:00;55.50;;;26.70;;
68951;SDS011;56000;51.146;17.112;2022-11-15T04:03:52;58.50;;;26.80;;
68951;SDS011;56000;51.146;17.112;2022-11-15T04:06:43;65.20;;;30.80;;
68951;SDS011;56000;51.146;17.112;2022-11-15T04:09:34;64.80;;;31.70;;
68951;SDS011;56000;51.146;17.112;2022-11-15T04:12:46;56.30;;;28.10;;
68951;SDS011;56000;51.146;17.112;2022-11-15T04:15:37;42.70;;;21.70;;
68951;SDS011;56000;51.146;17.112;2022-11-15T04:18:28;55.50;;;26.20;;
68951;SDS011;56000;51.146;17.112;2022-11-15T04:21:19;61.50;;;26.80;;
68951;SDS011;56000;51.146;17.112;2022-11-15T04:24:28;37.90;;;20.50;;
68951;SDS011;56000;51.146;17.112;2022-11-15T04:27:19;48.10;;;24.10;;
68951;SDS011;56000;51.146;17.112;2022-11-15T04:30:11;48.00;;;23.60;;
68951;SDS011;56000;51.146;17.112;2022-11-15T04:33:02;61.80;;;29.30;;
68951;SDS011;56000;51.146;17.112;2022-11-15T04:35:54;50.20;;;24.70;;
68951;SDS011;56000;51.146;17.112;2022-11-15T04:39:02;44.20;;;21.80;;
68951;SDS011;56000;51.146;17.112;2022-11-15T04:41:53;47.60;;;23.70;;
68951;SDS011;56000;51.146;17.112;2022-11-15T04:44:44;51.50;;;24.00;;
68951;SDS011;56000;51.146;17.112;2022-11-15T04:47:36;47.60;;;24.90;;
68951;SDS011;56000;51.146;17.112;2022-11-15T04:50:27;56.50;;;24.70;;
68951;SDS011;56000;51.146;17.112;2022-11-15T04:53:17;46.40;;;21.80;;
68951;SDS011;56000;51.146;17.112;2022-11-15T04:56:09;54.50;;;25.20;;
68951;SDS011;56000;51.146;17.112;2022-11-15T04:59:00;53.20;;;26.50;;
68951;SDS011;56000;51.146;17.112;2022-11-15T05:01:51;49.50;;;24.50;;
68951;SDS011;56000;51.146;17.112;2022-11-15T05:04:42;57.70;;;26.70;;
68951;SDS011;56000;51.146;17.112;2022-11-15T05:07:33;49.30;;;24.20;;
68951;SDS011;56000;51.146;17.112;2022-11-15T05:10:24;62.50;;;29.70;;
68951;SDS011;56000;51.146;17.112;2022-11-15T05:13:15;48.90;;;23.90;;
68951;SDS011;56000;51.146;17.112;2022-11-15T05:16:06;56.10;;;28.50;;
68951;SDS011;56000;51.146;17.112;2022-11-15T05:18:57;44.00;;;23.00;;
68951;SDS011;56000;51.146;17.112;2022-11-15T05:21:48;39.40;;;18.80;;
68951;SDS011;56000;51.146;17.112;2022-11-15T05:24:39;43.50;;;21.50;;
68951;SDS011;56000;51.146;17.112;2022-11-15T05:27:30;50.10;;;23.40;;
68951;SDS011;56000;51.146;17.112;2022-11-15T05:30:21;46.40;;;22.10;;
68951;SDS011;56000;51.146;17.112;2022-11-15T05:33:12;58.60;;;29.40;;
68951;SDS011;56000;51.146;17.112;2022-11-15T05:36:04;58.60;;;28.30;;
68951;SDS011;56000;51.146;17.112;2022-11-15T05:39:01;53.20;;;26.30;;
68951;SDS011;56000;51.146;17.112;2022-11-15T05:41:59;50.10;;;22.90;;
68951;SDS011;56000;51.146;17.112;2022-11-15T05:44:54;34.50;;;16.90;;
68951;SDS011;56000;51.146;17.112;2022-11-15T05:47:46;39.80;;;20.80;;
68951;SDS011;56000;51.146;17.112;2022-11-15T05:50:41;43.60;;;21.80;;
68951;SDS011;56000;51.146;17.112;2022-11-15T05:53:35;53.90;;;23.90;;
68951;SDS011;56000;51.146;17.112;2022-11-15T05:56:27;37.90;;;19.10;;
68951;SDS011;56000;51.146;17.112;2022-11-15T05:59:19;48.20;;;23.10;;
68951;SDS011;56000;51.146;17.112;2022-11-15T06:02:11;44.50;;;22.30;;
68951;SDS011;56000;51.146;17.112;2022-11-15T06:05:02;44.50;;;23.00;;
68951;SDS011;56000;51.146;17.112;2022-11-15T06:07:56;38.70;;;18.80;;
68951;SDS011;56000;51.146;17.112;2022-11-15T06:10:48;70.00;;;31.40;;
68951;SDS011;56000;51.146;17.112;2022-11-15T06:13:39;52.60;;;26.40;;
68951;SDS011;56000;51.146;17.112;2022-11-15T06:16:30;58.60;;;27.90;;
68951;SDS011;56000;51.146;17.112;2022-11-15T06:19:21;71.10;;;32.90;;
68951;SDS011;56000;51.146;17.112;2022-11-15T06:22:12;47.70;;;24.50;;
68951;SDS011;56000;51.146;17.112;2022-11-15T06:25:03;49.50;;;25.30;;
68951;SDS011;56000;51.146;17.112;2022-11-15T06:27:55;49.30;;;22.20;;
68951;SDS011;56000;51.146;17.112;2022-11-15T06:30:47;49.80;;;23.70;;
68951;SDS011;56000;51.146;17.112;2022-11-15T06:33:40;34.60;;;18.60;;
68951;SDS011;56000;51.146;17.112;2022-11-15T06:36:31;74.10;;;31.50;;
68951;SDS011;56000;51.146;17.112;2022-11-15T06:39:24;79.70;;;34.90;;
68951;SDS011;56000;51.146;17.112;2022-11-15T06:42:16;57.60;;;26.50;;
68951;SDS011;56000;51.146;17.112;2022-11-15T06:45:08;58.70;;;28.80;;
68951;SDS011;56000;51.146;17.112;2022-11-15T06:48:00;54.90;;;24.30;;
68951;SDS011;56000;51.146;17.112;2022-11-15T06:50:53;67.40;;;34.50;;
68951;SDS011;56000;51.146;17.112;2022-11-15T06:53:45;83.30;;;39.60;;
68951;SDS011;56000;51.146;17.112;2022-11-15T06:56:36;79.20;;;38.70;;
68951;SDS011;56000;51.146;17.112;2022-11-15T06:59:28;70.30;;;34.70;;
68951;SDS011;56000;51.146;17.112;2022-11-15T07:02:26;67.20;;;28.40;;
68951;SDS011;56000;51.146;17.112;2022-11-15T07:05:17;68.60;;;34.60;;
68951;SDS011;56000;51.146;17.112;2022-11-15T07:08:09;49.30;;;23.90;;
68951;SDS011;56000;51.146;17.112;2022-11-15T07:11:00;56.90;;;25.80;;
68951;SDS011;56000;51.146;17.112;2022-11-15T07:13:53;42.60;;;23.10;;
68951;SDS011;56000;51.146;17.112;2022-11-15T07:16:44;49.70;;;25.40;;
68951;SDS011;56000;51.146;17.112;2022-11-15T07:19:34;53.00;;;26.20;;
68951;SDS011;56000;51.146;17.112;2022-11-15T07:22:25;52.70;;;27.30;;
68951;SDS011;56000;51.146;17.112;2022-11-15T07:25:16;58.20;;;31.10;;
68951;SDS011;56000;51.146;17.112;2022-11-15T07:28:07;57.40;;;30.00;;
68951;SDS011;56000;51.146;17.112;2022-11-15T07:31:01;59.50;;;30.40;;
68951;SDS011;56000;51.146;17.112;2022-11-15T07:33:53;63.00;;;33.20;;
68951;SDS011;56000;51.146;17.112;2022-11-15T07:36:44;52.30;;;29.50;;
68951;SDS011;56000;51.146;17.112;2022-11-15T07:39:35;52.90;;;27.70;;
68951;SDS011;56000;51.146;17.112;2022-11-15T07:42:26;42.50;;;26.00;;
68951;SDS011;56000;51.146;17.112;2022-11-15T07:45:43;47.40;;;26.80;;
68951;SDS011;56000;51.146;17.112;2022-11-15T07:48:34;40.80;;;25.60;;
68951;SDS011;56000;51.146;17.112;2022-11-15T07:51:32;51.70;;;26.90;;
68951;SDS011;56000;51.146;17.112;2022-11-15T07:54:23;45.40;;;26.60;;
68951;SDS011;56000;51.146;17.112;2022-11-15T07:57:14;39.20;;;23.80;;
68951;SDS011;56000;51.146;17.112;2022-11-15T08:00:07;41.70;;;25.70;;
68951;SDS011;56000;51.146;17.112;2022-11-15T08:03:06;41.70;;;24.80;;
68951;SDS011;56000;51.146;17.112;2022-11-15T08:05:59;37.70;;;23.00;;
68951;SDS011;56000;51.146;17.112;2022-11-15T08:08:50;40.80;;;24.20;;
68951;SDS011;56000;51.146;17.112;2022-11-15T08:11:41;37.70;;;24.10;;
68951;SDS011;56000;51.146;17.112;2022-11-15T08:14:32;41.50;;;23.60;;
68951;SDS011;56000;51.146;17.112;2022-11-15T08:17:23;38.30;;;24.20;;
68951;SDS011;56000;51.146;17.112;2022-11-15T08:20:15;38.10;;;23.80;;
68951;SDS011;56000;51.146;17.112;2022-11-15T08:23:08;44.70;;;23.50;;
68951;SDS011;56000;51.146;17.112;2022-11-15T08:26:02;38.40;;;24.00;;
68951;SDS011;56000;51.146;17.112;2022-11-15T08:28:53;37.40;;;27.60;;
68951;SDS011;56000;51.146;17.112;2022-11-15T08:31:44;38.10;;;27.00;;
68951;SDS011;56000;51.146;17.112;2022-11-15T08:34:36;38.90;;;29.00;;
68951;SDS011;56000;51.146;17.112;2022-11-15T08:37:27;39.20;;;27.10;;
68951;SDS011;56000;51.146;17.112;2022-11-15T08:40:18;39.10;;;26.80;;
68951;SDS011;56000;51.146;17.112;2022-11-15T08:43:10;40.10;;;27.10;;
68951;SDS011;56000;51.146;17.112;2022-11-15T08:46:01;40.20;;;27.30;;
68951;SDS011;56000;51.146;17.112;2022-11-15T08:48:52;36.90;;;25.90;;
68951;SDS011;56000;51.146;17.112;2022-11-15T08:51:43;34.80;;;25.00;;
68951;SDS011;56000;51.146;17.112;2022-11-15T08:54:34;36.90;;;25.50;;
68951;SDS011;56000;51.146;17.112;2022-11-15T08:57:27;33.10;;;25.00;;
68951;SDS011;56000;51.146;17.112;2022-11-15T09:00:19;37.30;;;24.80;;
68951;SDS011;56000;51.146;17.112;2022-11-15T09:03:11;36.40;;;25.40;;
68951;SDS011;56000;51.146;17.112;2022-11-15T09:06:03;33.60;;;25.00;;
68951;SDS011;56000;51.146;17.112;2022-11-15T09:08:55;33.50;;;22.60;;
68951;SDS011;56000;51.146;17.112;2022-11-15T09:11:46;34.30;;;23.70;;
68951;SDS011;56000;51.146;17.112;2022-11-15T09:14:38;34.30;;;22.70;;
68951;SDS011;56000;51.146;17.112;2022-11-15T09:17:29;34.60;;;23.50;;
68951;SDS011;56000;51.146;17.112;2022-11-15T09:20:21;31.40;;;22.60;;
68951;SDS011;56000;51.146;17.112;2022-11-15T09:23:12;35.10;;;23.10;;
68951;SDS011;56000;51.146;17.112;2022-11-15T09:26:04;38.60;;;23.70;;
68951;SDS011;56000;51.146;17.112;2022-11-15T09:28:55;32.60;;;22.80;;
68951;SDS011;56000;51.146;17.112;2022-11-15T09:31:46;31.10;;;21.40;;
68951;SDS011;56000;51.146;17.112;2022-11-15T09:34:37;30.20;;;21.60;;
68951;SDS011;56000;51.146;17.112;2022-11-15T09:37:28;33.70;;;21.40;;
68951;SDS011;56000;51.146;17.112;2022-11-15T09:40:20;31.20;;;20.20;;
68951;SDS011;56000;51.146;17.112;2022-11-15T09:46:34;32.60;;;21.50;;
68951;SDS011;56000;51.146;17.112;2022-11-15T09:49:30;31.80;;;23.20;;
68951;SDS011;56000;51.146;17.112;2022-11-15T09:52:26;26.10;;;19.10;;
68951;SDS011;56000;51.146;17.112;2022-11-15T09:54:58;25.80;;;17.50;;
68951;SDS011;56000;51.146;17.112;2022-11-15T09:57:32;28.10;;;17.70;;
68951;SDS011;56000;51.146;17.112;2022-11-15T10:00:16;26.90;;;19.80;;
68951;SDS011;56000;51.146;17.112;2022-11-15T10:03:13;29.50;;;20.60;;
68951;SDS011;56000;51.146;17.112;2022-11-15T10:05:49;24.50;;;17.30;;
68951;SDS011;56000;51.146;17.112;2022-11-15T10:08:33;27.80;;;17.70;;
68951;SDS011;56000;51.146;17.112;2022-11-15T10:11:17;25.20;;;18.60;;
68951;SDS011;56000;51.146;17.112;2022-11-15T10:14:11;25.50;;;18.30;;
68951;SDS011;56000;51.146;17.112;2022-11-15T10:19:56;30.40;;;19.10;;
68951;SDS011;56000;51.146;17.112;2022-11-15T10:22:44;31.60;;;19.70;;
68951;SDS011;56000;51.146;17.112;2022-11-15T10:25:21;27.30;;;19.30;;
68951;SDS011;56000;51.146;17.112;2022-11-15T10:27:58;26.60;;;18.80;;
68951;SDS011;56000;51.146;17.112;2022-11-15T10:30:35;25.20;;;19.30;;
68951;SDS011;56000;51.146;17.112;2022-11-15T10:33:19;26.20;;;17.40;;
68951;SDS011;56000;51.146;17.112;2022-11-15T10:36:17;24.80;;;19.10;;
68951;SDS011;56000;51.146;17.112;2022-11-15T10:38:57;30.90;;;20.20;;
68951;SDS011;56000;51.146;17.112;2022-11-15T10:41:37;25.40;;;17.40;;
68951;SDS011;56000;51.146;17.112;2022-11-15T10:44:20;27.10;;;19.30;;
68951;SDS011;56000;51.146;17.112;2022-11-15T10:47:22;26.20;;;18.40;;
68951;SDS011;56000;51.146;17.112;2022-11-15T10:50:03;21.90;;;16.80;;
68951;SDS011;56000;51.146;17.112;2022-11-15T10:52:37;28.30;;;18.60;;
68951;SDS011;56000;51.146;17.112;2022-11-15T10:55:24;26.20;;;19.90;;
68951;SDS011;56000;51.146;17.112;2022-11-15T10:58:03;26.90;;;18.10;;
68951;SDS011;56000;51.146;17.112;2022-11-15T11:00:50;27.10;;;16.00;;
68951;SDS011;56000;51.146;17.112;2022-11-15T11:03:29;21.80;;;16.10;;
68951;SDS011;56000;51.146;17.112;2022-11-15T11:06:10;23.70;;;16.30;;
68951;SDS011;56000;51.146;17.112;2022-11-15T11:08:56;22.00;;;15.80;;
68951;SDS011;56000;51.146;17.112;2022-11-15T11:11:45;23.50;;;16.30;;
68951;SDS011;56000;51.146;17.112;2022-11-15T11:14:22;25.40;;;16.70;;
68951;SDS011;56000;51.146;17.112;2022-11-15T11:17:01;28.10;;;17.70;;
68951;SDS011;56000;51.146;17.112;2022-11-15T11:19:48;22.70;;;16.20;;
68951;SDS011;56000;51.146;17.112;2022-11-15T11:22:32;18.70;;;14.60;;
68951;SDS011;56000;51.146;17.112;2022-11-15T11:33:23;22.00;;;15.90;;
68951;SDS011;56000;51.146;17.112;2022-11-15T11:36:06;21.90;;;14.60;;
68951;SDS011;56000;51.146;17.112;2022-11-15T11:39:15;26.00;;;15.40;;
68951;SDS011;56000;51.146;17.112;2022-11-15T11:42:04;19.30;;;14.10;;
68951;SDS011;56000;51.146;17.112;2022-11-15T11:44:50;21.10;;;13.60;;
68951;SDS011;56000;51.146;17.112;2022-11-15T11:47:32;21.20;;;13.60;;
68951;SDS011;56000;51.146;17.112;2022-11-15T11:50:13;26.20;;;14.50;;
68951;SDS011;56000;51.146;17.112;2022-11-15T11:52:56;21.90;;;14.60;;
68951;SDS011;56000;51.146;17.112;2022-11-15T11:55:34;23.30;;;13.90;;
68951;SDS011;56000;51.146;17.112;2022-11-15T11:58:14;25.30;;;15.50;;
68951;SDS011;56000;51.146;17.112;2022-11-15T12:00:54;20.50;;;13.60;;
68951;SDS011;56000;51.146;17.112;2022-11-15T12:03:34;24.10;;;13.50;;
68951;SDS011;56000;51.146;17.112;2022-11-15T12:06:17;21.30;;;13.20;;
68951;SDS011;56000;51.146;17.112;2022-11-15T12:08:58;21.20;;;13.40;;
68951;SDS011;56000;51.146;17.112;2022-11-15T12:11:38;27.40;;;15.50;;
68951;SDS011;56000;51.146;17.112;2022-11-15T12:14:27;21.00;;;13.10;;
68951;SDS011;56000;51.146;17.112;2022-11-15T12:17:03;16.90;;;10.50;;
68951;SDS011;56000;51.146;17.112;2022-11-15T12:19:36;24.90;;;13.90;;
68951;SDS011;56000;51.146;17.112;2022-11-15T12:22:12;20.30;;;13.20;;
68951;SDS011;56000;51.146;17.112;2022-11-15T12:24:53;20.50;;;10.90;;
68951;SDS011;56000;51.146;17.112;2022-11-15T12:27:32;21.80;;;12.60;;
68951;SDS011;56000;51.146;17.112;2022-11-15T12:30:13;22.80;;;13.60;;
68951;SDS011;56000;51.146;17.112;2022-11-15T12:32:53;24.20;;;13.20;;
68951;SDS011;56000;51.146;17.112;2022-11-15T12:35:32;22.40;;;12.60;;
68951;SDS011;56000;51.146;17.112;2022-11-15T12:38:10;18.80;;;11.40;;
68951;SDS011;56000;51.146;17.112;2022-11-15T12:41:24;19.80;;;11.60;;
68951;SDS011;56000;51.146;17.112;2022-11-15T12:43:58;23.30;;;11.50;;
68951;SDS011;56000;51.146;17.112;2022-11-15T12:47:01;15.40;;;10.70;;
68951;SDS011;56000;51.146;17.112;2022-11-15T12:49:45;19.10;;;11.00;;
68951;SDS011;56000;51.146;17.112;2022-11-15T12:52:19;18.50;;;11.30;;
68951;SDS011;56000;51.146;17.112;2022-11-15T13:01:10;42.00;;;22.30;;
68951;SDS011;56000;51.146;17.112;2022-11-15T13:04:14;18.90;;;11.60;;
68951;SDS011;56000;51.146;17.112;2022-11-15T13:06:56;21.10;;;13.70;;
68951;SDS011;56000;51.146;17.112;2022-11-15T13:09:52;19.00;;;11.70;;
68951;SDS011;56000;51.146;17.112;2022-11-15T13:12:53;15.90;;;10.80;;
68951;SDS011;56000;51.146;17.112;2022-11-15T13:15:54;23.60;;;10.90;;
68951;SDS011;56000;51.146;17.112;2022-11-15T13:18:33;14.40;;;8.90;;
68951;SDS011;56000;51.146;17.112;2022-11-15T13:21:21;14.90;;;10.20;;
68951;SDS011;56000;51.146;17.112;2022-11-15T13:24:15;15.60;;;10.70;;
68951;SDS011;56000;51.146;17.112;2022-11-15T13:26:48;15.30;;;9.80;;
68951;SDS011;56000;51.146;17.112;2022-11-15T13:29:21;19.30;;;11.20;;
68951;SDS011;56000;51.146;17.112;2022-11-15T13:31:54;16.10;;;10.70;;
68951;SDS011;56000;51.146;17.112;2022-11-15T13:34:29;17.40;;;10.60;;
68951;SDS011;56000;51.146;17.112;2022-11-15T13:37:32;17.90;;;10.10;;
68951;SDS011;56000;51.146;17.112;2022-11-15T13:40:26;15.90;;;9.40;;
68951;SDS011;56000;51.146;17.112;2022-11-15T13:43:02;13.80;;;8.90;;
68951;SDS011;56000;51.146;17.112;2022-11-15T13:45:56;15.10;;;9.70;;
68951;SDS011;56000;51.146;17.112;2022-11-15T13:48:36;15.10;;;10.00;;
68951;SDS011;56000;51.146;17.112;2022-11-15T13:51:15;14.90;;;10.20;;
68951;SDS011;56000;51.146;17.112;2022-11-15T13:53:50;13.20;;;9.50;;
68951;SDS011;56000;51.146;17.112;2022-11-15T13:56:26;14.50;;;9.90;;
68951;SDS011;56000;51.146;17.112;2022-11-15T13:59:07;17.90;;;10.10;;
68951;SDS011;56000;51.146;17.112;2022-11-15T14:01:42;17.60;;;11.80;;
68951;SDS011;56000;51.146;17.112;2022-11-15T14:04:20;17.80;;;11.30;;
68951;SDS011;56000;51.146;17.112;2022-11-15T14:06:55;20.40;;;10.90;;
68951;SDS011;56000;51.146;17.112;2022-11-15T14:09:35;17.20;;;11.80;;
68951;SDS011;56000;51.146;17.112;2022-11-15T14:12:30;21.30;;;12.90;;
68951;SDS011;56000;51.146;17.112;2022-11-15T14:15:25;23.40;;;13.10;;
68951;SDS011;56000;51.146;17.112;2022-11-15T14:18:01;24.00;;;14.60;;
68951;SDS011;56000;51.146;17.112;2022-11-15T14:20:38;22.70;;;14.40;;
68951;SDS011;56000;51.146;17.112;2022-11-15T14:23:25;26.20;;;13.60;;
68951;SDS011;56000;51.146;17.112;2022-11-15T14:25:59;26.70;;;13.90;;
68951;SDS011;56000;51.146;17.112;2022-11-15T14:28:40;18.30;;;11.60;;
68951;SDS011;56000;51.146;17.112;2022-11-15T14:31:13;18.10;;;10.00;;
68951;SDS011;56000;51.146;17.112;2022-11-15T14:33:46;22.60;;;12.20;;
68951;SDS011;56000;51.146;17.112;2022-11-15T14:36:20;28.20;;;12.40;;
68951;SDS011;56000;51.146;17.112;2022-11-15T14:38:53;15.30;;;11.00;;
68951;SDS011;56000;51.146;17.112;2022-11-15T14:41:26;19.80;;;11.90;;
68951;SDS011;56000;51.146;17.112;2022-11-15T14:44:02;20.70;;;12.10;;
68951;SDS011;56000;51.146;17.112;2022-11-15T14:46:35;23.50;;;12.50;;
68951;SDS011;56000;51.146;17.112;2022-11-15T14:49:07;19.50;;;11.90;;
68951;SDS011;56000;51.146;17.112;2022-11-15T14:51:42;21.80;;;12.50;;
68951;SDS011;56000;51.146;17.112;2022-11-15T14:54:15;20.10;;;13.50;;
68951;SDS011;56000;51.146;17.112;2022-11-15T14:56:48;19.90;;;12.40;;
68951;SDS011;56000;51.146;17.112;2022-11-15T14:59:21;22.00;;;14.80;;
68951;SDS011;56000;51.146;17.112;2022-11-15T15:01:53;21.90;;;13.40;;
68951;SDS011;56000;51.146;17.112;2022-11-15T15:04:26;22.70;;;11.30;;
68951;SDS011;56000;51.146;17.112;2022-11-15T15:06:58;20.70;;;11.30;;
68951;SDS011;56000;51.146;17.112;2022-11-15T15:09:31;19.20;;;11.10;;
68951;SDS011;56000;51.146;17.112;2022-11-15T15:12:04;29.90;;;13.30;;
68951;SDS011;56000;51.146;17.112;2022-11-15T15:14:42;19.60;;;12.40;;
68951;SDS011;56000;51.146;17.112;2022-11-15T15:17:15;19.70;;;11.80;;
68951;SDS011;56000;51.146;17.112;2022-11-15T15:19:48;28.80;;;12.60;;
68951;SDS011;56000;51.146;17.112;2022-11-15T15:22:21;19.90;;;13.20;;
68951;SDS011;56000;51.146;17.112;2022-11-15T15:24:57;20.20;;;12.90;;
68951;SDS011;56000;51.146;17.112;2022-11-15T15:27:29;21.20;;;13.80;;
68951;SDS011;56000;51.146;17.112;2022-11-15T15:30:02;26.60;;;16.10;;
68951;SDS011;56000;51.146;17.112;2022-11-15T15:32:36;25.40;;;15.70;;
68951;SDS011;56000;51.146;17.112;2022-11-15T15:35:10;31.00;;;17.50;;
68951;SDS011;56000;51.146;17.112;2022-11-15T15:37:45;30.60;;;18.40;;
68951;SDS011;56000;51.146;17.112;2022-11-15T15:40:19;35.00;;;19.10;;
68951;SDS011;56000;51.146;17.112;2022-11-15T15:42:53;32.60;;;19.00;;
68951;SDS011;56000;51.146;17.112;2022-11-15T15:45:27;40.10;;;21.10;;
68951;SDS011;56000;51.146;17.112;2022-11-15T15:48:00;39.00;;;19.10;;
68951;SDS011;56000;51.146;17.112;2022-11-15T15:50:34;36.10;;;20.50;;
68951;SDS011;56000;51.146;17.112;2022-11-15T15:53:08;42.20;;;22.90;;
68951;SDS011;56000;51.146;17.112;2022-11-15T15:55:42;38.20;;;21.70;;
68951;SDS011;56000;51.146;17.112;2022-11-15T15:58:14;35.60;;;21.20;;
68951;SDS011;56000;51.146;17.112;2022-11-15T16:00:47;30.80;;;19.00;;
68951;SDS011;56000;51.146;17.112;2022-11-15T16:03:19;34.50;;;21.10;;
68951;SDS011;56000;51.146;17.112;2022-11-15T16:05:53;35.30;;;20.40;;
68951;SDS011;56000;51.146;17.112;2022-11-15T16:08:26;75.40;;;50.70;;
68951;SDS011;56000;51.146;17.112;2022-11-15T16:11:16;38.40;;;21.30;;
68951;SDS011;56000;51.146;17.112;2022-11-15T16:13:48;33.80;;;20.90;;
68951;SDS011;56000;51.146;17.112;2022-11-15T16:16:21;38.20;;;21.80;;
68951;SDS011;56000;51.146;17.112;2022-11-15T16:18:54;29.60;;;17.80;;
68951;SDS011;56000;51.146;17.112;2022-11-15T16:21:26;27.90;;;17.30;;
68951;SDS011;56000;51.146;17.112;2022-11-15T16:23:59;31.00;;;18.20;;
68951;SDS011;56000;51.146;17.112;2022-11-15T16:26:32;38.00;;;19.70;;
68951;SDS011;56000;51.146;17.112;2022-11-15T16:29:07;32.80;;;19.70;;
68951;SDS011;56000;51.146;17.112;2022-11-15T16:31:41;31.90;;;19.20;;
68951;SDS011;56000;51.146;17.112;2022-11-15T16:34:13;25.80;;;14.20;;
68951;SDS011;56000;51.146;17.112;2022-11-15T16:36:46;40.10;;;23.70;;
68951;SDS011;56000;51.146;17.112;2022-11-15T16:39:18;42.50;;;24.90;;